Time,TemperatureF,DewpointF,PressureIn,WindDirection,WindDirectionDegrees,WindSpeedMPH,WindSpeedGustMPH,Humidity,HourlyPrecipIn,Conditions,Clouds,dailyrainin,SolarRadiationWatts/m^2,SoftwareType,DateUTC
2013-06-06 00:02:00,54.0,52.0,-100.00,East,92,5.0,11.0,94,0.05,,,0.25,58.000000,,2013-06-06 00:02:00,
2013-06-06 00:12:00,54.0,52.0,-100.00,ENE,71,3.0,10.0,94,0.02,,,0.25,79.000000,,2013-06-06 00:12:00,
2013-06-06 00:32:00,54.0,52.0,-100.00,ENE,71,3.0,10.0,94,0.02,,,0.25,79.000000,,2013-06-06 00:32:00,
2013-06-06 00:43:00,54.0,52.0,-100.00,ENE,71,3.0,10.0,94,0.02,,,0.25,79.000000,,2013-06-06 00:43:00,
2013-06-06 00:52:00,54.0,52.0,-100.00,ENE,71,3.0,10.0,94,0.02,,,0.25,79.000000,,2013-06-06 00:52:00,
2013-06-06 01:02:00,54.0,52.0,-100.00,ENE,71,3.0,10.0,94,0.02,,,0.25,79.000000,,2013-06-06 01:02:00,
2013-06-06 01:12:00,54.0,52.0,-100.00,East,81,3.0,9.0,92,0.00,,,0.23,47.000000,,2013-06-06 01:12:00,
2013-06-06 01:32:00,54.0,52.0,-100.00,East,81,3.0,9.0,92,0.00,,,0.23,47.000000,,2013-06-06 01:32:00,
2013-06-06 01:42:00,54.0,52.0,-100.00,East,81,3.0,9.0,92,0.00,,,0.23,47.000000,,2013-06-06 01:42:00,
2013-06-06 01:53:00,54.0,52.0,-100.00,East,81,3.0,9.0,92,0.00,,,0.23,47.000000,,2013-06-06 01:53:00,
2013-06-06 02:02:00,54.0,52.0,-100.00,East,81,3.0,9.0,92,0.00,,,0.23,47.000000,,2013-06-06 02:02:00,
2013-06-06 02:12:00,54.0,51.0,-100.00,East,99,3.0,8.0,89,0.00,,,0.22,2.000000,,2013-06-06 02:12:00,
2013-06-06 02:32:00,54.0,51.0,-100.00,East,99,3.0,8.0,89,0.00,,,0.22,2.000000,,2013-06-06 02:32:00,
2013-06-06 02:42:00,54.0,51.0,-100.00,East,99,3.0,8.0,89,0.00,,,0.22,2.000000,,2013-06-06 02:42:00,
2013-06-06 02:52:00,54.0,51.0,-100.00,East,99,3.0,8.0,89,0.00,,,0.22,2.000000,,2013-06-06 02:52:00,
2013-06-06 03:02:00,54.0,51.0,-100.00,East,99,3.0,8.0,89,0.00,,,0.22,2.000000,,2013-06-06 03:02:00,
2013-06-06 03:12:00,53.0,49.0,-100.00,East,90,2.0,8.0,87,0.00,,,0.22,0.000000,,2013-06-06 03:12:00,
2013-06-06 03:33:00,53.0,49.0,-100.00,East,90,2.0,8.0,87,0.00,,,0.22,0.000000,,2013-06-06 03:33:00,
2013-06-06 03:43:00,53.0,49.0,-100.00,East,90,2.0,8.0,87,0.00,,,0.22,0.000000,,2013-06-06 03:43:00,
2013-06-06 03:53:00,53.0,49.0,-100.00,East,90,2.0,8.0,87,0.00,,,0.22,0.000000,,2013-06-06 03:53:00,
2013-06-06 04:03:00,53.0,49.0,-100.00,East,90,2.0,8.0,87,0.00,,,0.22,0.000000,,2013-06-06 04:03:00,
2013-06-06 04:12:00,53.0,50.0,-100.00,NE,46,1.0,4.0,90,0.00,,,0.21,0.000000,,2013-06-06 04:12:00,
2013-06-06 04:33:00,53.0,50.0,-100.00,NE,46,1.0,4.0,90,0.00,,,0.21,0.000000,,2013-06-06 04:33:00,
2013-06-06 04:42:00,53.0,50.0,-100.00,NE,46,1.0,4.0,90,0.00,,,0.21,0.000000,,2013-06-06 04:42:00,
2013-06-06 04:53:00,53.0,50.0,-100.00,NE,46,1.0,4.0,90,0.00,,,0.21,0.000000,,2013-06-06 04:53:00,
2013-06-06 05:02:00,53.0,50.0,-100.00,NE,46,1.0,4.0,90,0.00,,,0.21,0.000000,,2013-06-06 05:02:00,
2013-06-06 05:12:00,52.0,51.0,-100.00,ENE,69,3.0,6.0,95,0.09,,,0.29,0.000000,,2013-06-06 05:12:00,
2013-06-06 05:32:00,52.0,51.0,-100.00,ENE,69,3.0,6.0,95,0.09,,,0.29,0.000000,,2013-06-06 05:32:00,
2013-06-06 05:42:00,52.0,51.0,-100.00,ENE,69,3.0,6.0,95,0.09,,,0.29,0.000000,,2013-06-06 05:42:00,
2013-06-06 05:52:00,52.0,51.0,-100.00,ENE,69,3.0,6.0,95,0.09,,,0.29,0.000000,,2013-06-06 05:52:00,
2013-06-06 06:02:00,52.0,51.0,-100.00,ENE,69,3.0,6.0,95,0.09,,,0.29,0.000000,,2013-06-06 06:02:00,
2013-06-06 06:12:00,51.0,50.0,-100.00,NNW,342,2.0,6.0,95,0.09,,,0.38,0.000000,,2013-06-06 06:12:00,
2013-06-06 06:33:00,51.0,50.0,-100.00,NNW,342,2.0,6.0,95,0.09,,,0.38,0.000000,,2013-06-06 06:33:00,
2013-06-06 06:42:00,51.0,50.0,-100.00,NNW,342,2.0,6.0,95,0.09,,,0.38,0.000000,,2013-06-06 06:42:00,
2013-06-06 06:52:00,51.0,50.0,-100.00,NNW,342,2.0,6.0,95,0.09,,,0.38,0.000000,,2013-06-06 06:52:00,
2013-06-06 07:02:00,51.0,50.0,-100.00,NNW,342,2.0,6.0,95,0.09,,,0.38,0.000000,,2013-06-06 07:02:00,
2013-06-06 07:12:00,51.0,50.0,-100.00,ENE,66,2.0,6.0,96,0.18,,,0.56,0.000000,,2013-06-06 07:12:00,
2013-06-06 07:32:00,51.0,50.0,-100.00,ENE,66,2.0,6.0,96,0.18,,,0.56,0.000000,,2013-06-06 07:32:00,
2013-06-06 07:42:00,51.0,50.0,-100.00,ENE,66,2.0,6.0,96,0.18,,,0.56,0.000000,,2013-06-06 07:42:00,
2013-06-06 07:52:00,51.0,50.0,-100.00,ENE,66,2.0,6.0,96,0.18,,,0.56,0.000000,,2013-06-06 07:52:00,
2013-06-06 08:02:00,51.0,50.0,-100.00,ENE,66,2.0,6.0,96,0.18,,,0.56,0.000000,,2013-06-06 08:02:00,
2013-06-06 08:12:00,51.0,50.0,-100.00,NE,54,2.0,8.0,97,0.09,,,0.65,0.000000,,2013-06-06 08:12:00,
2013-06-06 08:32:00,51.0,50.0,-100.00,NE,54,2.0,8.0,97,0.09,,,0.65,0.000000,,2013-06-06 08:32:00,
2013-06-06 08:42:00,51.0,50.0,-100.00,NE,54,2.0,8.0,97,0.09,,,0.65,0.000000,,2013-06-06 08:42:00,
2013-06-06 08:52:00,51.0,50.0,-100.00,NE,54,2.0,8.0,97,0.09,,,0.65,0.000000,,2013-06-06 08:52:00,
2013-06-06 09:02:00,51.0,50.0,-100.00,NE,54,2.0,8.0,97,0.09,,,0.65,0.000000,,2013-06-06 09:02:00,
2013-06-06 09:12:00,51.0,50.0,-100.00,ENE,61,3.0,8.0,97,0.06,,,0.71,0.000000,,2013-06-06 09:12:00,
2013-06-06 09:33:00,51.0,50.0,-100.00,ENE,61,3.0,8.0,97,0.06,,,0.71,0.000000,,2013-06-06 09:33:00,
2013-06-06 09:43:00,51.0,50.0,-100.00,ENE,61,3.0,8.0,97,0.06,,,0.71,0.000000,,2013-06-06 09:43:00,
2013-06-06 09:53:00,51.0,50.0,-100.00,ENE,61,3.0,8.0,97,0.06,,,0.71,0.000000,,2013-06-06 09:53:00,
2013-06-06 10:03:00,51.0,50.0,-100.00,ENE,61,3.0,8.0,97,0.06,,,0.71,0.000000,,2013-06-06 10:03:00,
2013-06-06 10:12:00,51.0,50.0,-100.00,ENE,59,3.0,7.0,97,0.04,,,0.75,0.000000,,2013-06-06 10:12:00,
2013-06-06 10:33:00,51.0,50.0,-100.00,ENE,59,3.0,7.0,97,0.04,,,0.75,0.000000,,2013-06-06 10:33:00,
2013-06-06 10:42:00,51.0,50.0,-100.00,ENE,59,3.0,7.0,97,0.04,,,0.75,0.000000,,2013-06-06 10:42:00,
2013-06-06 10:53:00,51.0,50.0,-100.00,ENE,59,3.0,7.0,97,0.04,,,0.75,0.000000,,2013-06-06 10:53:00,
2013-06-06 11:02:00,51.0,50.0,-100.00,ENE,59,3.0,7.0,97,0.04,,,0.75,0.000000,,2013-06-06 11:02:00,
2013-06-06 11:12:00,51.0,50.0,-100.00,ENE,60,3.0,8.0,97,0.00,,,0.75,5.000000,,2013-06-06 11:12:00,
2013-06-06 11:32:00,51.0,50.0,-100.00,ENE,60,3.0,8.0,97,0.00,,,0.75,5.000000,,2013-06-06 11:32:00,
2013-06-06 11:42:00,51.0,50.0,-100.00,ENE,60,3.0,8.0,97,0.00,,,0.75,5.000000,,2013-06-06 11:42:00,
2013-06-06 11:52:00,51.0,50.0,-100.00,ENE,60,3.0,8.0,97,0.00,,,0.75,5.000000,,2013-06-06 11:52:00,
2013-06-06 12:03:00,51.0,50.0,-100.00,ENE,60,3.0,8.0,97,0.00,,,0.75,5.000000,,2013-06-06 12:03:00,
2013-06-06 12:12:00,51.0,50.0,-100.00,ENE,59,3.0,9.0,97,0.00,,,0.75,19.000000,,2013-06-06 12:12:00,
2013-06-06 12:33:00,51.0,50.0,-100.00,ENE,59,3.0,9.0,97,0.00,,,0.75,19.000000,,2013-06-06 12:33:00,
2013-06-06 12:43:00,51.0,50.0,-100.00,ENE,59,3.0,9.0,97,0.00,,,0.75,19.000000,,2013-06-06 12:43:00,
2013-06-06 12:53:00,51.0,50.0,-100.00,ENE,59,3.0,9.0,97,0.00,,,0.75,19.000000,,2013-06-06 12:53:00,
2013-06-06 13:03:00,51.0,50.0,-100.00,ENE,59,3.0,9.0,97,0.00,,,0.75,19.000000,,2013-06-06 13:03:00,
2013-06-06 13:12:00,51.0,50.0,-100.00,ENE,69,4.0,9.0,97,0.00,,,0.75,34.000000,,2013-06-06 13:12:00,
2013-06-06 13:33:00,51.0,50.0,-100.00,ENE,69,4.0,9.0,97,0.00,,,0.75,34.000000,,2013-06-06 13:33:00,
2013-06-06 13:43:00,51.0,50.0,-100.00,ENE,69,4.0,9.0,97,0.00,,,0.75,34.000000,,2013-06-06 13:43:00,
2013-06-06 13:53:00,51.0,50.0,-100.00,ENE,69,4.0,9.0,97,0.00,,,0.75,34.000000,,2013-06-06 13:53:00,
2013-06-06 14:03:00,51.0,50.0,-100.00,ENE,69,4.0,9.0,97,0.00,,,0.75,34.000000,,2013-06-06 14:03:00,
2013-06-06 14:12:00,52.0,51.0,-100.00,ENE,63,4.0,11.0,97,0.00,,,-99.99,56.000000,,2013-06-06 14:12:00,
2013-06-06 14:33:00,52.0,51.0,-100.00,ENE,63,4.0,11.0,97,0.00,,,-99.99,56.000000,,2013-06-06 14:33:00,
2013-06-06 14:43:00,52.0,51.0,-100.00,ENE,63,4.0,11.0,97,0.00,,,-99.99,56.000000,,2013-06-06 14:43:00,
2013-06-06 14:53:00,52.0,51.0,-100.00,ENE,63,4.0,11.0,97,0.00,,,-99.99,56.000000,,2013-06-06 14:53:00,
2013-06-06 15:03:00,52.0,51.0,-100.00,ENE,63,4.0,11.0,97,0.00,,,-99.99,56.000000,,2013-06-06 15:03:00,
2013-06-06 16:12:00,55.0,53.0,-100.00,East,81,4.0,11.0,92,-99.99,,,-99.99,156.000000,,2013-06-06 16:12:00,
2013-06-06 16:34:00,55.0,53.0,-100.00,East,81,4.0,11.0,92,-99.99,,,-99.99,156.000000,,2013-06-06 16:34:00,
2013-06-06 16:44:00,55.0,53.0,-100.00,East,81,4.0,11.0,92,-99.99,,,-99.99,156.000000,,2013-06-06 16:44:00,
2013-06-06 16:53:00,55.0,53.0,-100.00,East,81,4.0,11.0,92,-99.99,,,-99.99,156.000000,,2013-06-06 16:53:00,
2013-06-06 17:03:00,55.0,53.0,-100.00,East,81,4.0,11.0,92,-99.99,,,-99.99,156.000000,,2013-06-06 17:03:00,
2013-06-06 17:12:00,55.0,52.0,-100.00,East,97,5.0,12.0,88,0.00,,,-99.99,221.000000,,2013-06-06 17:12:00,
2013-06-06 17:33:00,55.0,52.0,-100.00,East,97,5.0,12.0,88,0.00,,,-99.99,221.000000,,2013-06-06 17:33:00,
2013-06-06 17:43:00,55.0,52.0,-100.00,East,97,5.0,12.0,88,0.00,,,-99.99,221.000000,,2013-06-06 17:43:00,
2013-06-06 17:53:00,55.0,52.0,-100.00,East,97,5.0,12.0,88,0.00,,,-99.99,221.000000,,2013-06-06 17:53:00,
2013-06-06 18:03:00,55.0,52.0,-100.00,East,97,5.0,12.0,88,0.00,,,-99.99,221.000000,,2013-06-06 18:03:00,
2013-06-06 18:12:00,55.0,52.0,-100.00,East,95,4.0,10.0,89,0.00,,,0.75,205.000000,,2013-06-06 18:12:00,
2013-06-06 18:33:00,55.0,52.0,-100.00,East,95,4.0,10.0,89,0.00,,,0.75,205.000000,,2013-06-06 18:33:00,
2013-06-06 18:43:00,55.0,52.0,-100.00,East,95,4.0,10.0,89,0.00,,,0.75,205.000000,,2013-06-06 18:43:00,
2013-06-06 18:53:00,55.0,52.0,-100.00,East,95,4.0,10.0,89,0.00,,,0.75,205.000000,,2013-06-06 18:53:00,
2013-06-06 19:03:00,55.0,52.0,-100.00,East,95,4.0,10.0,89,0.00,,,0.75,205.000000,,2013-06-06 19:03:00,
2013-06-06 19:12:00,55.0,52.0,-100.00,NE,56,3.0,9.0,90,0.00,,,0.75,103.000000,,2013-06-06 19:12:00,
2013-06-06 19:34:00,55.0,52.0,-100.00,NE,56,3.0,9.0,90,0.00,,,0.75,103.000000,,2013-06-06 19:34:00,
2013-06-06 19:43:00,55.0,52.0,-100.00,NE,56,3.0,9.0,90,0.00,,,0.75,103.000000,,2013-06-06 19:43:00,
2013-06-06 19:53:00,55.0,52.0,-100.00,NE,56,3.0,9.0,90,0.00,,,0.75,103.000000,,2013-06-06 19:53:00,
2013-06-06 20:03:00,55.0,52.0,-100.00,NE,56,3.0,9.0,90,0.00,,,0.75,103.000000,,2013-06-06 20:03:00,
2013-06-06 20:12:00,55.0,52.0,-100.00,ENE,57,3.0,9.0,90,0.00,,,-99.99,178.000000,,2013-06-06 20:12:00,
2013-06-06 20:33:00,55.0,52.0,-100.00,ENE,57,3.0,9.0,90,0.00,,,-99.99,178.000000,,2013-06-06 20:33:00,
2013-06-06 20:43:00,55.0,52.0,-100.00,ENE,57,3.0,9.0,90,0.00,,,-99.99,178.000000,,2013-06-06 20:43:00,
2013-06-06 20:53:00,55.0,52.0,-100.00,ENE,57,3.0,9.0,90,0.00,,,-99.99,178.000000,,2013-06-06 20:53:00,
2013-06-06 21:03:00,55.0,52.0,-100.00,ENE,57,3.0,9.0,90,0.00,,,-99.99,178.000000,,2013-06-06 21:03:00,
2013-06-06 21:12:00,55.0,52.0,-100.00,NE,52,4.0,11.0,90,0.00,,,0.62,98.000000,,2013-06-06 21:12:00,
2013-06-06 21:33:00,55.0,52.0,-100.00,NE,52,4.0,11.0,90,0.00,,,0.62,98.000000,,2013-06-06 21:33:00,
2013-06-06 21:44:00,55.0,52.0,-100.00,NE,52,4.0,11.0,90,0.00,,,0.62,98.000000,,2013-06-06 21:44:00,
2013-06-06 21:53:00,55.0,52.0,-100.00,NE,52,4.0,11.0,90,0.00,,,0.62,98.000000,,2013-06-06 21:53:00,
2013-06-06 22:03:00,55.0,52.0,-100.00,NE,52,4.0,11.0,90,0.00,,,0.62,98.000000,,2013-06-06 22:03:00,
2013-06-06 22:12:00,55.0,52.0,-100.00,ENE,68,3.0,10.0,88,0.00,,,0.62,92.000000,,2013-06-06 22:12:00,
2013-06-06 22:33:00,55.0,52.0,-100.00,ENE,68,3.0,10.0,88,0.00,,,0.62,92.000000,,2013-06-06 22:33:00,
2013-06-06 22:43:00,55.0,52.0,-100.00,ENE,68,3.0,10.0,88,0.00,,,0.62,92.000000,,2013-06-06 22:43:00,
2013-06-06 22:53:00,55.0,52.0,-100.00,ENE,68,3.0,10.0,88,0.00,,,0.62,92.000000,,2013-06-06 22:53:00,
2013-06-06 23:02:00,55.0,52.0,-100.00,ENE,68,3.0,10.0,88,0.00,,,0.62,92.000000,,2013-06-06 23:02:00,
2013-06-06 23:12:00,55.0,51.0,-100.00,NE,48,2.0,10.0,86,0.00,,,0.57,97.000000,,2013-06-06 23:12:00,
2013-06-06 23:33:00,55.0,51.0,-100.00,NE,48,2.0,10.0,86,0.00,,,0.57,97.000000,,2013-06-06 23:33:00,
2013-06-06 23:43:00,55.0,51.0,-100.00,NE,48,2.0,10.0,86,0.00,,,0.57,97.000000,,2013-06-06 23:43:00,
2013-06-06 23:52:00,55.0,51.0,-100.00,NE,48,2.0,10.0,86,0.00,,,0.57,97.000000,,2013-06-06 23:52:00,